ENQR

Snorre B Oilp

Snorre B Oilp, Norway
METAR ENQR 181250Z AUTO 21031KT 9999NDV OVC056/// 12/09 Q1001 W///S5
Observed Flight Rules
Jun-18 @ 12:50 UTC (33 minutes ago)
Wind Clouds
210° at 31 knots
  • Overcast at 5,600' AGL
Temperatures Readings
Current 12°C / 54°F
Dewpoint 9°C / 48°F
Humidity 82%
Altimeter 29.56" Hg
Pressure 1001 hPa
Elevation 10
METAR ENQR 181250Z AUTO 21031KT 9999NDV OVC056/// 12/09 Q1001 W///S5
Observed Flight Rules
Jun-18 @ 12:50 UTC
(33 minutes ago)
Wind
210° at 31 knots
Clouds
  • Overcast at 5,600' AGL
Temperature Dewpoint
12°C / 54°F 9°C / 48°F
Humidity Altimeter Pressure
82% 29.56" Hg 1001 hPa